sensor_id;sensor_type;location;lat;lon;timestamp;pressure;altitude;pressure_sealevel;temperature;humidity
70730;BME280;58315;53.336;55.932;2022-10-17T00:01:34;101357.78;;;8.46;57.88
70730;BME280;58315;53.336;55.932;2022-10-17T00:04:00;101365.09;;;8.41;57.63
70730;BME280;58315;53.336;55.932;2022-10-17T00:06:26;101366.88;;;8.40;57.06
70730;BME280;58315;53.336;55.932;2022-10-17T00:08:52;101369.59;;;8.39;57.08
70730;BME280;58315;53.336;55.932;2022-10-17T00:11:21;101365.25;;;8.38;56.88
70730;BME280;58315;53.336;55.932;2022-10-17T00:13:48;101372.44;;;8.34;56.94
70730;BME280;58315;53.336;55.932;2022-10-17T00:16:32;101376.66;;;8.38;56.81
70730;BME280;58315;53.336;55.932;2022-10-17T00:18:59;101376.94;;;8.15;57.32
70730;BME280;58315;53.336;55.932;2022-10-17T00:21:25;101380.66;;;8.11;57.17
70730;BME280;58315;53.336;55.932;2022-10-17T00:23:51;101381.69;;;8.08;57.26
70730;BME280;58315;53.336;55.932;2022-10-17T00:26:18;101386.09;;;8.08;57.60
70730;BME280;58315;53.336;55.932;2022-10-17T00:28:47;101384.16;;;8.11;57.65
70730;BME280;58315;53.336;55.932;2022-10-17T00:31:16;101383.63;;;8.05;58.13
70730;BME280;58315;53.336;55.932;2022-10-17T00:33:42;101380.91;;;8.06;57.71
70730;BME280;58315;53.336;55.932;2022-10-17T00:38:39;101391.75;;;8.17;58.04
70730;BME280;58315;53.336;55.932;2022-10-17T00:41:06;101387.88;;;8.25;58.11
70730;BME280;58315;53.336;55.932;2022-10-17T00:44:05;101387.41;;;8.34;58.26
70730;BME280;58315;53.336;55.932;2022-10-17T00:46:35;101385.53;;;8.18;58.18
70730;BME280;58315;53.336;55.932;2022-10-17T00:49:06;101391.44;;;8.24;58.12
70730;BME280;58315;53.336;55.932;2022-10-17T00:51:37;101394.91;;;8.24;58.13
70730;BME280;58315;53.336;55.932;2022-10-17T00:54:06;101399.03;;;8.12;58.16
70730;BME280;58315;53.336;55.932;2022-10-17T00:56:33;101400.13;;;8.08;58.18
70730;BME280;58315;53.336;55.932;2022-10-17T00:58:59;101398.09;;;8.13;57.94
70730;BME280;58315;53.336;55.932;2022-10-17T01:01:25;101401.88;;;8.08;58.11
70730;BME280;58315;53.336;55.932;2022-10-17T01:03:51;101403.06;;;8.02;58.42
70730;BME280;58315;53.336;55.932;2022-10-17T01:06:18;101397.00;;;8.00;58.31
70730;BME280;58315;53.336;55.932;2022-10-17T01:08:44;101395.47;;;7.96;58.22
70730;BME280;58315;53.336;55.932;2022-10-17T01:16:52;101407.09;;;7.92;58.28
70730;BME280;58315;53.336;55.932;2022-10-17T01:27:41;101411.81;;;7.68;58.27
70730;BME280;58315;53.336;55.932;2022-10-17T01:35:58;101401.16;;;7.52;58.80
70730;BME280;58315;53.336;55.932;2022-10-17T01:38:36;101404.09;;;7.46;58.81
70730;BME280;58315;53.336;55.932;2022-10-17T01:43:40;101398.28;;;7.39;58.43
70730;BME280;58315;53.336;55.932;2022-10-17T01:48:44;101403.34;;;7.25;58.28
70730;BME280;58315;53.336;55.932;2022-10-17T01:51:16;101405.13;;;7.24;58.48
70730;BME280;58315;53.336;55.932;2022-10-17T01:53:49;101408.66;;;7.23;58.78
70730;BME280;58315;53.336;55.932;2022-10-17T01:56:18;101403.56;;;7.20;58.77
70730;BME280;58315;53.336;55.932;2022-10-17T01:58:56;101413.00;;;7.24;58.78
70730;BME280;58315;53.336;55.932;2022-10-17T02:01:28;101410.81;;;7.15;59.23
70730;BME280;58315;53.336;55.932;2022-10-17T02:03:59;101407.75;;;7.24;59.25
70730;BME280;58315;53.336;55.932;2022-10-17T02:06:26;101415.28;;;7.32;58.98
70730;BME280;58315;53.336;55.932;2022-10-17T02:08:52;101412.41;;;7.37;58.84
70730;BME280;58315;53.336;55.932;2022-10-17T02:11:23;101414.78;;;7.43;58.55
70730;BME280;58315;53.336;55.932;2022-10-17T02:16:34;101409.19;;;7.49;58.15
70730;BME280;58315;53.336;55.932;2022-10-17T02:24:17;101401.09;;;7.54;57.89
70730;BME280;58315;53.336;55.932;2022-10-17T02:27:12;101412.72;;;7.67;57.55
70730;BME280;58315;53.336;55.932;2022-10-17T02:29:55;101401.28;;;7.68;57.54
70730;BME280;58315;53.336;55.932;2022-10-17T02:32:28;101408.38;;;7.66;57.73
70730;BME280;58315;53.336;55.932;2022-10-17T02:35:00;101415.19;;;7.70;57.15
70730;BME280;58315;53.336;55.932;2022-10-17T02:37:30;101409.38;;;7.63;56.76
70730;BME280;58315;53.336;55.932;2022-10-17T02:39:59;101417.59;;;7.57;56.90
70730;BME280;58315;53.336;55.932;2022-10-17T02:42:26;101419.97;;;7.62;57.08
70730;BME280;58315;53.336;55.932;2022-10-17T02:44:58;101422.47;;;7.65;56.87
70730;BME280;58315;53.336;55.932;2022-10-17T02:47:33;101421.00;;;7.77;57.09
70730;BME280;58315;53.336;55.932;2022-10-17T02:50:03;101422.84;;;7.74;56.82
70730;BME280;58315;53.336;55.932;2022-10-17T02:52:34;101425.81;;;7.68;56.72
70730;BME280;58315;53.336;55.932;2022-10-17T02:55:09;101419.91;;;7.63;56.56
70730;BME280;58315;53.336;55.932;2022-10-17T02:58:00;101423.56;;;7.61;56.74
70730;BME280;58315;53.336;55.932;2022-10-17T03:00:45;101423.41;;;7.45;56.35
70730;BME280;58315;53.336;55.932;2022-10-17T03:03:27;101430.22;;;7.49;56.44
70730;BME280;58315;53.336;55.932;2022-10-17T03:05:58;101433.59;;;7.34;57.19
70730;BME280;58315;53.336;55.932;2022-10-17T03:08:25;101429.28;;;7.33;56.76
70730;BME280;58315;53.336;55.932;2022-10-17T03:11:09;101432.84;;;7.32;57.27
70730;BME280;58315;53.336;55.932;2022-10-17T03:13:35;101429.19;;;7.34;57.17
70730;BME280;58315;53.336;55.932;2022-10-17T03:16:20;101441.25;;;7.38;57.06
70730;BME280;58315;53.336;55.932;2022-10-17T03:18:46;101435.81;;;7.43;57.17
70730;BME280;58315;53.336;55.932;2022-10-17T03:21:12;101431.53;;;7.40;57.49
70730;BME280;58315;53.336;55.932;2022-10-17T03:23:38;101434.66;;;7.48;57.24
70730;BME280;58315;53.336;55.932;2022-10-17T03:26:06;101433.66;;;7.51;57.18
70730;BME280;58315;53.336;55.932;2022-10-17T03:28:33;101441.25;;;7.57;56.79
70730;BME280;58315;53.336;55.932;2022-10-17T03:31:09;101434.59;;;7.67;56.63
70730;BME280;58315;53.336;55.932;2022-10-17T03:33:37;101436.06;;;7.56;56.62
70730;BME280;58315;53.336;55.932;2022-10-17T03:36:14;101434.00;;;7.62;56.88
70730;BME280;58315;53.336;55.932;2022-10-17T03:38:42;101424.53;;;7.58;56.82
70730;BME280;58315;53.336;55.932;2022-10-17T03:41:09;101433.06;;;7.63;56.70
70730;BME280;58315;53.336;55.932;2022-10-17T03:43:37;101438.97;;;7.68;56.75
70730;BME280;58315;53.336;55.932;2022-10-17T03:46:05;101440.75;;;7.68;56.89
70730;BME280;58315;53.336;55.932;2022-10-17T03:48:32;101442.50;;;7.67;56.88
70730;BME280;58315;53.336;55.932;2022-10-17T03:51:01;101438.50;;;7.78;56.83
70730;BME280;58315;53.336;55.932;2022-10-17T03:53:28;101439.13;;;7.83;56.85
70730;BME280;58315;53.336;55.932;2022-10-17T03:55:54;101442.16;;;7.92;56.90
70730;BME280;58315;53.336;55.932;2022-10-17T03:58:20;101454.78;;;8.03;56.59
70730;BME280;58315;53.336;55.932;2022-10-17T04:00:46;101451.06;;;8.07;56.39
70730;BME280;58315;53.336;55.932;2022-10-17T04:03:15;101451.84;;;8.09;56.17
70730;BME280;58315;53.336;55.932;2022-10-17T04:06:01;101456.34;;;8.25;56.21
70730;BME280;58315;53.336;55.932;2022-10-17T04:08:28;101455.19;;;8.30;55.92
70730;BME280;58315;53.336;55.932;2022-10-17T04:11:06;101456.88;;;8.31;55.53
70730;BME280;58315;53.336;55.932;2022-10-17T04:13:33;101455.69;;;8.37;55.68
70730;BME280;58315;53.336;55.932;2022-10-17T04:16:05;101454.44;;;8.45;55.56
70730;BME280;58315;53.336;55.932;2022-10-17T04:18:32;101457.25;;;8.58;55.68
70730;BME280;58315;53.336;55.932;2022-10-17T04:21:02;101463.16;;;8.63;55.37
70730;BME280;58315;53.336;55.932;2022-10-17T04:23:29;101457.69;;;8.66;55.62
70730;BME280;58315;53.336;55.932;2022-10-17T04:26:01;101457.06;;;8.79;55.24
70730;BME280;58315;53.336;55.932;2022-10-17T04:28:28;101460.84;;;8.90;55.26
70730;BME280;58315;53.336;55.932;2022-10-17T04:30:59;101466.47;;;9.00;55.07
70730;BME280;58315;53.336;55.932;2022-10-17T04:33:31;101468.16;;;9.01;55.22
70730;BME280;58315;53.336;55.932;2022-10-17T04:35:59;101477.47;;;9.08;54.61
70730;BME280;58315;53.336;55.932;2022-10-17T04:38:27;101461.03;;;9.03;55.01
70730;BME280;58315;53.336;55.932;2022-10-17T04:40:53;101469.38;;;9.11;54.82
70730;BME280;58315;53.336;55.932;2022-10-17T04:43:21;101470.59;;;9.22;54.38
70730;BME280;58315;53.336;55.932;2022-10-17T04:45:48;101468.38;;;9.30;54.57
70730;BME280;58315;53.336;55.932;2022-10-17T04:48:14;101475.19;;;9.34;53.74
70730;BME280;58315;53.336;55.932;2022-10-17T04:50:40;101476.34;;;9.28;54.06
70730;BME280;58315;53.336;55.932;2022-10-17T04:53:21;101476.44;;;9.27;53.83
70730;BME280;58315;53.336;55.932;2022-10-17T04:55:48;101482.31;;;9.32;53.61
70730;BME280;58315;53.336;55.932;2022-10-17T04:58:14;101485.81;;;9.32;53.84
70730;BME280;58315;53.336;55.932;2022-10-17T05:00:40;101486.69;;;9.33;54.36
70730;BME280;58315;53.336;55.932;2022-10-17T05:03:19;101474.41;;;9.32;54.11
70730;BME280;58315;53.336;55.932;2022-10-17T05:05:45;101483.53;;;9.42;54.50
70730;BME280;58315;53.336;55.932;2022-10-17T05:08:12;101476.03;;;9.50;53.96
70730;BME280;58315;53.336;55.932;2022-10-17T05:10:42;101481.41;;;9.49;53.78
70730;BME280;58315;53.336;55.932;2022-10-17T05:13:09;101474.66;;;9.43;53.74
70730;BME280;58315;53.336;55.932;2022-10-17T05:15:36;101483.19;;;9.48;53.87
70730;BME280;58315;53.336;55.932;2022-10-17T05:18:03;101486.25;;;9.56;53.71
70730;BME280;58315;53.336;55.932;2022-10-17T05:20:29;101477.59;;;9.54;54.32
70730;BME280;58315;53.336;55.932;2022-10-17T05:22:58;101479.41;;;9.68;54.60
70730;BME280;58315;53.336;55.932;2022-10-17T05:25:27;101479.78;;;9.62;54.26
70730;BME280;58315;53.336;55.932;2022-10-17T05:27:54;101475.44;;;9.61;54.12
70730;BME280;58315;53.336;55.932;2022-10-17T05:30:20;101475.19;;;9.65;53.99
70730;BME280;58315;53.336;55.932;2022-10-17T05:32:51;101485.72;;;9.81;53.93
70730;BME280;58315;53.336;55.932;2022-10-17T05:35:18;101470.91;;;9.79;54.41
70730;BME280;58315;53.336;55.932;2022-10-17T05:37:45;101475.66;;;9.88;53.83
70730;BME280;58315;53.336;55.932;2022-10-17T05:40:11;101479.81;;;9.92;54.12
70730;BME280;58315;53.336;55.932;2022-10-17T05:42:44;101475.44;;;10.07;54.18
70730;BME280;58315;53.336;55.932;2022-10-17T05:45:10;101475.19;;;10.11;54.65
70730;BME280;58315;53.336;55.932;2022-10-17T05:47:36;101469.31;;;10.06;54.66
70730;BME280;58315;53.336;55.932;2022-10-17T05:50:03;101475.41;;;10.23;54.97
70730;BME280;58315;53.336;55.932;2022-10-17T05:52:41;101465.50;;;10.42;55.07
70730;BME280;58315;53.336;55.932;2022-10-17T05:55:11;101471.19;;;10.65;54.78
70730;BME280;58315;53.336;55.932;2022-10-17T05:57:38;101472.13;;;10.78;54.05
70730;BME280;58315;53.336;55.932;2022-10-17T06:00:08;101468.53;;;10.93;54.12
70730;BME280;58315;53.336;55.932;2022-10-17T06:02:44;101468.34;;;11.10;54.03
70730;BME280;58315;53.336;55.932;2022-10-17T06:05:13;101466.03;;;11.19;53.86
70730;BME280;58315;53.336;55.932;2022-10-17T06:07:39;101472.38;;;11.30;53.98
70730;BME280;58315;53.336;55.932;2022-10-17T06:10:06;101474.53;;;11.38;52.43
70730;BME280;58315;53.336;55.932;2022-10-17T06:12:33;101469.69;;;11.59;52.55
70730;BME280;58315;53.336;55.932;2022-10-17T06:14:59;101468.59;;;11.62;52.38
70730;BME280;58315;53.336;55.932;2022-10-17T06:17:25;101467.59;;;11.77;52.41
70730;BME280;58315;53.336;55.932;2022-10-17T06:19:52;101475.34;;;11.94;52.51
70730;BME280;58315;53.336;55.932;2022-10-17T06:22:18;101470.09;;;12.07;51.72
70730;BME280;58315;53.336;55.932;2022-10-17T06:24:45;101472.88;;;12.31;51.32
70730;BME280;58315;53.336;55.932;2022-10-17T06:27:11;101477.38;;;12.43;51.10
70730;BME280;58315;53.336;55.932;2022-10-17T06:29:37;101474.19;;;12.64;50.83
70730;BME280;58315;53.336;55.932;2022-10-17T06:32:05;101472.25;;;12.78;50.45
70730;BME280;58315;53.336;55.932;2022-10-17T06:34:32;101465.78;;;12.95;49.86
70730;BME280;58315;53.336;55.932;2022-10-17T06:36:59;101466.50;;;13.10;50.35
70730;BME280;58315;53.336;55.932;2022-10-17T06:39:25;101466.91;;;13.30;50.18
70730;BME280;58315;53.336;55.932;2022-10-17T06:42:04;101464.41;;;13.52;49.78
70730;BME280;58315;53.336;55.932;2022-10-17T06:44:46;101462.94;;;13.72;49.10
70730;BME280;58315;53.336;55.932;2022-10-17T06:47:36;101468.25;;;13.72;48.45
70730;BME280;58315;53.336;55.932;2022-10-17T06:50:31;101457.63;;;13.72;49.04
70730;BME280;58315;53.336;55.932;2022-10-17T06:53:08;101461.59;;;13.66;48.40
70730;BME280;58315;53.336;55.932;2022-10-17T06:55:51;101457.97;;;13.43;48.19
70730;BME280;58315;53.336;55.932;2022-10-17T06:58:43;101457.78;;;13.21;48.87
70730;BME280;58315;53.336;55.932;2022-10-17T07:01:31;101448.97;;;13.20;49.03
70730;BME280;58315;53.336;55.932;2022-10-17T07:04:00;101451.22;;;13.14;48.94
70730;BME280;58315;53.336;55.932;2022-10-17T07:06:27;101449.28;;;13.16;48.92
70730;BME280;58315;53.336;55.932;2022-10-17T07:09:19;101445.03;;;13.26;49.06
70730;BME280;58315;53.336;55.932;2022-10-17T07:11:46;101444.84;;;13.29;48.91
70730;BME280;58315;53.336;55.932;2022-10-17T07:14:15;101438.00;;;13.38;49.09
70730;BME280;58315;53.336;55.932;2022-10-17T07:16:42;101441.66;;;13.24;48.57
70730;BME280;58315;53.336;55.932;2022-10-17T07:19:35;101434.44;;;13.26;48.54
70730;BME280;58315;53.336;55.932;2022-10-17T07:22:01;101433.59;;;13.25;48.45
70730;BME280;58315;53.336;55.932;2022-10-17T07:24:29;101429.25;;;13.24;48.16
70730;BME280;58315;53.336;55.932;2022-10-17T07:27:02;101436.03;;;13.52;48.58
70730;BME280;58315;53.336;55.932;2022-10-17T07:29:28;101432.13;;;13.69;47.66
70730;BME280;58315;53.336;55.932;2022-10-17T07:32:17;101428.72;;;13.67;47.96
70730;BME280;58315;53.336;55.932;2022-10-17T07:34:46;101431.28;;;13.69;47.61
70730;BME280;58315;53.336;55.932;2022-10-17T07:37:12;101437.06;;;13.63;47.39
70730;BME280;58315;53.336;55.932;2022-10-17T07:39:43;101434.31;;;13.64;48.02
70730;BME280;58315;53.336;55.932;2022-10-17T07:42:09;101426.38;;;13.75;47.36
70730;BME280;58315;53.336;55.932;2022-10-17T07:44:35;101439.88;;;13.72;47.23
70730;BME280;58315;53.336;55.932;2022-10-17T07:47:01;101434.00;;;13.56;47.05
70730;BME280;58315;53.336;55.932;2022-10-17T07:49:28;101427.00;;;13.55;47.12
70730;BME280;58315;53.336;55.932;2022-10-17T07:51:54;101430.22;;;13.71;47.73
70730;BME280;58315;53.336;55.932;2022-10-17T07:54:21;101432.78;;;14.08;47.39
70730;BME280;58315;53.336;55.932;2022-10-17T07:56:47;101434.53;;;14.32;47.18
70730;BME280;58315;53.336;55.932;2022-10-17T07:59:17;101429.78;;;14.59;46.24
70730;BME280;58315;53.336;55.932;2022-10-17T08:01:43;101432.06;;;14.64;45.71
70730;BME280;58315;53.336;55.932;2022-10-17T08:04:09;101426.63;;;14.88;45.50
70730;BME280;58315;53.336;55.932;2022-10-17T08:06:35;101425.03;;;15.08;45.56
70730;BME280;58315;53.336;55.932;2022-10-17T08:09:00;101425.25;;;15.27;45.33
70730;BME280;58315;53.336;55.932;2022-10-17T08:11:27;101412.84;;;15.49;45.12
70730;BME280;58315;53.336;55.932;2022-10-17T08:13:53;101411.97;;;15.59;44.87
70730;BME280;58315;53.336;55.932;2022-10-17T08:16:19;101411.63;;;15.53;43.99
70730;BME280;58315;53.336;55.932;2022-10-17T08:18:44;101412.50;;;15.42;43.75
70730;BME280;58315;53.336;55.932;2022-10-17T08:21:11;101417.00;;;15.30;44.20
70730;BME280;58315;53.336;55.932;2022-10-17T08:23:38;101416.09;;;14.98;44.07
70730;BME280;58315;53.336;55.932;2022-10-17T08:26:06;101408.34;;;14.94;44.30
70730;BME280;58315;53.336;55.932;2022-10-17T08:28:35;101410.50;;;15.12;43.65
70730;BME280;58315;53.336;55.932;2022-10-17T08:31:03;101399.41;;;14.95;44.73
70730;BME280;58315;53.336;55.932;2022-10-17T08:33:29;101400.13;;;14.98;44.33
70730;BME280;58315;53.336;55.932;2022-10-17T08:36:00;101402.09;;;14.95;44.15
70730;BME280;58315;53.336;55.932;2022-10-17T08:38:31;101397.69;;;15.06;43.78
70730;BME280;58315;53.336;55.932;2022-10-17T08:41:00;101394.69;;;14.99;44.10
70730;BME280;58315;53.336;55.932;2022-10-17T08:43:55;101390.56;;;15.17;43.43
70730;BME280;58315;53.336;55.932;2022-10-17T08:46:30;101379.78;;;15.08;43.44
70730;BME280;58315;53.336;55.932;2022-10-17T08:48:58;101382.69;;;15.05;42.46
70730;BME280;58315;53.336;55.932;2022-10-17T08:51:32;101383.56;;;14.94;42.05
70730;BME280;58315;53.336;55.932;2022-10-17T08:54:13;101375.47;;;14.95;42.14
70730;BME280;58315;53.336;55.932;2022-10-17T08:56:49;101378.47;;;14.91;42.76
70730;BME280;58315;53.336;55.932;2022-10-17T08:59:19;101374.50;;;14.85;42.38
70730;BME280;58315;53.336;55.932;2022-10-17T09:04:44;101369.91;;;15.31;42.92
70730;BME280;58315;53.336;55.932;2022-10-17T09:13:12;101365.31;;;15.76;41.91
70730;BME280;58315;53.336;55.932;2022-10-17T09:18:32;101351.41;;;15.61;41.90
70730;BME280;58315;53.336;55.932;2022-10-17T09:21:18;101353.50;;;15.58;41.80
70730;BME280;58315;53.336;55.932;2022-10-17T09:23:51;101352.66;;;15.46;42.53
70730;BME280;58315;53.336;55.932;2022-10-17T09:26:18;101344.06;;;15.22;42.33
70730;BME280;58315;53.336;55.932;2022-10-17T09:28:51;101349.50;;;15.20;42.54
70730;BME280;58315;53.336;55.932;2022-10-17T09:31:29;101347.00;;;15.07;41.71
70730;BME280;58315;53.336;55.932;2022-10-17T09:33:56;101354.41;;;14.92;41.97
70730;BME280;58315;53.336;55.932;2022-10-17T09:36:34;101342.88;;;15.14;41.87
70730;BME280;58315;53.336;55.932;2022-10-17T09:39:10;101344.31;;;15.18;41.52
70730;BME280;58315;53.336;55.932;2022-10-17T09:41:43;101335.19;;;15.32;41.14
70730;BME280;58315;53.336;55.932;2022-10-17T09:44:29;101341.16;;;15.46;41.44
70730;BME280;58315;53.336;55.932;2022-10-17T09:47:05;101337.81;;;15.43;41.10
70730;BME280;58315;53.336;55.932;2022-10-17T09:49:44;101341.06;;;15.47;40.63
70730;BME280;58315;53.336;55.932;2022-10-17T09:52:20;101338.06;;;15.40;40.95
70730;BME280;58315;53.336;55.932;2022-10-17T09:55:02;101335.06;;;15.66;40.67
70730;BME280;58315;53.336;55.932;2022-10-17T09:57:56;101332.59;;;15.95;40.78
70730;BME280;58315;53.336;55.932;2022-10-17T10:00:26;101329.47;;;16.11;41.02
70730;BME280;58315;53.336;55.932;2022-10-17T10:03:20;101325.09;;;16.31;40.06
70730;BME280;58315;53.336;55.932;2022-10-17T10:11:14;101316.59;;;16.47;39.21
70730;BME280;58315;53.336;55.932;2022-10-17T10:13:41;101312.03;;;16.37;37.93
70730;BME280;58315;53.336;55.932;2022-10-17T10:16:30;101310.63;;;16.33;39.09
70730;BME280;58315;53.336;55.932;2022-10-17T10:18:57;101307.25;;;16.31;39.14
70730;BME280;58315;53.336;55.932;2022-10-17T10:21:25;101309.81;;;16.43;39.21
70730;BME280;58315;53.336;55.932;2022-10-17T10:24:12;101310.53;;;16.45;38.46
70730;BME280;58315;53.336;55.932;2022-10-17T10:26:47;101306.28;;;16.32;38.41
70730;BME280;58315;53.336;55.932;2022-10-17T10:32:10;101304.38;;;16.23;38.76
70730;BME280;58315;53.336;55.932;2022-10-17T10:34:53;101296.03;;;16.37;38.59
70730;BME280;58315;53.336;55.932;2022-10-17T10:37:22;101298.28;;;16.32;39.33
70730;BME280;58315;53.336;55.932;2022-10-17T10:39:57;101295.19;;;16.37;38.75
70730;BME280;58315;53.336;55.932;2022-10-17T10:42:30;101296.69;;;16.20;38.74
70730;BME280;58315;53.336;55.932;2022-10-17T10:47:50;101298.19;;;16.13;38.87
70730;BME280;58315;53.336;55.932;2022-10-17T10:55:36;101293.19;;;15.99;38.58
70730;BME280;58315;53.336;55.932;2022-10-17T11:00:55;101290.53;;;15.99;39.17
70730;BME280;58315;53.336;55.932;2022-10-17T11:03:33;101278.16;;;15.98;38.88
70730;BME280;58315;53.336;55.932;2022-10-17T11:06:21;101279.28;;;15.95;38.68
70730;BME280;58315;53.336;55.932;2022-10-17T11:11:32;101278.56;;;15.72;39.22
70730;BME280;58315;53.336;55.932;2022-10-17T11:14:31;101269.72;;;15.72;39.30
70730;BME280;58315;53.336;55.932;2022-10-17T11:22:48;101253.97;;;15.80;39.48
70730;BME280;58315;53.336;55.932;2022-10-17T11:25:36;101254.25;;;15.86;39.14
70730;BME280;58315;53.336;55.932;2022-10-17T11:28:14;101242.41;;;16.00;39.07
70730;BME280;58315;53.336;55.932;2022-10-17T11:30:59;101243.28;;;16.10;39.20
70730;BME280;58315;53.336;55.932;2022-10-17T11:33:59;101249.03;;;16.06;38.75
70730;BME280;58315;53.336;55.932;2022-10-17T11:36:33;101237.38;;;16.07;38.73
70730;BME280;58315;53.336;55.932;2022-10-17T11:39:07;101241.03;;;16.06;37.96
70730;BME280;58315;53.336;55.932;2022-10-17T11:41:48;101231.75;;;16.00;38.29
70730;BME280;58315;53.336;55.932;2022-10-17T11:44:30;101234.97;;;16.04;38.41
70730;BME280;58315;53.336;55.932;2022-10-17T11:47:09;101236.50;;;15.97;38.69
70730;BME280;58315;53.336;55.932;2022-10-17T11:49:44;101237.31;;;15.97;38.87
70730;BME280;58315;53.336;55.932;2022-10-17T11:54:59;101227.28;;;16.10;38.33
70730;BME280;58315;53.336;55.932;2022-10-17T12:03:15;101227.38;;;15.99;38.50
70730;BME280;58315;53.336;55.932;2022-10-17T12:08:33;101218.78;;;15.65;38.00
70730;BME280;58315;53.336;55.932;2022-10-17T12:11:28;101220.41;;;15.56;38.16
70730;BME280;58315;53.336;55.932;2022-10-17T12:13:59;101216.44;;;15.51;38.59
70730;BME280;58315;53.336;55.932;2022-10-17T12:21:27;101209.50;;;15.17;38.45
70730;BME280;58315;53.336;55.932;2022-10-17T12:30:15;101202.34;;;15.18;38.72
70730;BME280;58315;53.336;55.932;2022-10-17T12:35:30;101206.19;;;15.25;38.83
70730;BME280;58315;53.336;55.932;2022-10-17T12:38:01;101205.59;;;15.22;39.08
70730;BME280;58315;53.336;55.932;2022-10-17T12:45:53;101203.78;;;15.22;39.44
70730;BME280;58315;53.336;55.932;2022-10-17T12:51:11;101195.38;;;15.06;39.48
70730;BME280;58315;53.336;55.932;2022-10-17T12:56:14;101195.25;;;14.75;39.65
70730;BME280;58315;53.336;55.932;2022-10-17T12:58:49;101193.94;;;14.69;40.09
70730;BME280;58315;53.336;55.932;2022-10-17T13:01:24;101197.81;;;14.65;39.85
70730;BME280;58315;53.336;55.932;2022-10-17T13:03:53;101195.09;;;14.44;39.90
70730;BME280;58315;53.336;55.932;2022-10-17T13:06:24;101196.16;;;14.42;40.23
70730;BME280;58315;53.336;55.932;2022-10-17T13:09:03;101193.88;;;14.37;40.18
70730;BME280;58315;53.336;55.932;2022-10-17T13:11:32;101184.13;;;14.27;40.52
70730;BME280;58315;53.336;55.932;2022-10-17T13:14:01;101184.22;;;14.25;40.54
70730;BME280;58315;53.336;55.932;2022-10-17T13:16:39;101184.75;;;14.19;40.64
70730;BME280;58315;53.336;55.932;2022-10-17T13:19:17;101189.69;;;14.12;40.97
70730;BME280;58315;53.336;55.932;2022-10-17T13:21:56;101185.47;;;13.98;41.13
70730;BME280;58315;53.336;55.932;2022-10-17T13:24:35;101181.59;;;13.91;41.30
70730;BME280;58315;53.336;55.932;2022-10-17T13:27:03;101188.34;;;13.73;41.72
70730;BME280;58315;53.336;55.932;2022-10-17T13:29:30;101188.81;;;13.67;41.64
70730;BME280;58315;53.336;55.932;2022-10-17T13:31:59;101189.09;;;13.64;41.94
70730;BME280;58315;53.336;55.932;2022-10-17T13:34:26;101187.13;;;13.55;41.99
70730;BME280;58315;53.336;55.932;2022-10-17T13:36:55;101189.56;;;13.58;42.11
70730;BME280;58315;53.336;55.932;2022-10-17T13:39:26;101192.69;;;13.63;42.16
70730;BME280;58315;53.336;55.932;2022-10-17T13:41:54;101188.94;;;13.54;42.07
70730;BME280;58315;53.336;55.932;2022-10-17T13:44:23;101190.16;;;13.50;42.09
70730;BME280;58315;53.336;55.932;2022-10-17T13:46:50;101189.28;;;13.38;42.39
70730;BME280;58315;53.336;55.932;2022-10-17T13:49:31;101186.13;;;13.33;42.44
70730;BME280;58315;53.336;55.932;2022-10-17T13:51:59;101191.59;;;13.19;42.67
70730;BME280;58315;53.336;55.932;2022-10-17T13:56:56;101190.84;;;13.06;42.73
70730;BME280;58315;53.336;55.932;2022-10-17T13:59:24;101192.31;;;13.10;42.66
70730;BME280;58315;53.336;55.932;2022-10-17T14:01:51;101191.19;;;13.01;42.79
70730;BME280;58315;53.336;55.932;2022-10-17T14:04:19;101188.53;;;13.01;42.37
70730;BME280;58315;53.336;55.932;2022-10-17T14:06:46;101193.13;;;12.99;42.44
70730;BME280;58315;53.336;55.932;2022-10-17T14:09:31;101189.84;;;12.95;42.12
70730;BME280;58315;53.336;55.932;2022-10-17T14:12:09;101190.41;;;12.88;42.52
70730;BME280;58315;53.336;55.932;2022-10-17T14:14:39;101186.41;;;12.82;42.67
70730;BME280;58315;53.336;55.932;2022-10-17T14:17:16;101185.91;;;12.77;42.84
70730;BME280;58315;53.336;55.932;2022-10-17T14:19:56;101191.00;;;12.80;42.50
70730;BME280;58315;53.336;55.932;2022-10-17T14:22:27;101186.69;;;12.66;42.45
70730;BME280;58315;53.336;55.932;2022-10-17T14:24:54;101184.84;;;12.55;42.76
70730;BME280;58315;53.336;55.932;2022-10-17T14:27:35;101176.44;;;12.62;42.66
70730;BME280;58315;53.336;55.932;2022-10-17T14:32:55;101188.34;;;12.56;42.62
70730;BME280;58315;53.336;55.932;2022-10-17T14:35:22;101170.34;;;12.48;42.77
70730;BME280;58315;53.336;55.932;2022-10-17T14:37:50;101178.16;;;12.50;43.07
70730;BME280;58315;53.336;55.932;2022-10-17T14:40:20;101171.75;;;12.41;43.08
70730;BME280;58315;53.336;55.932;2022-10-17T14:42:49;101177.38;;;12.37;43.15
70730;BME280;58315;53.336;55.932;2022-10-17T14:45:37;101182.56;;;12.38;43.05
70730;BME280;58315;53.336;55.932;2022-10-17T14:48:16;101184.38;;;12.38;43.34
70730;BME280;58315;53.336;55.932;2022-10-17T14:54:01;101185.34;;;12.24;43.44
70730;BME280;58315;53.336;55.932;2022-10-17T14:56:35;101183.16;;;12.18;43.37
70730;BME280;58315;53.336;55.932;2022-10-17T14:59:02;101179.69;;;12.04;43.83
70730;BME280;58315;53.336;55.932;2022-10-17T15:01:31;101176.53;;;11.99;43.53
70730;BME280;58315;53.336;55.932;2022-10-17T15:03:57;101174.41;;;11.92;43.82
70730;BME280;58315;53.336;55.932;2022-10-17T15:06:42;101175.44;;;12.02;43.73